Island Fox — FOX — position and weather

sailwx.info

Track history (hours):
 
Tides and Currents Weather Stations Pressure Air Temp Water Temp Dewpoint Dewpoint Depression Visibility Wind Speed Wind Dir Waves Ship Positions

Island Fox

Last reported at 2017-Nov-19 22:05 UTC. Time now 2017-Nov-24 12:43 UTC.
Position N 34°09' W 119°12'.

Length 28 m; draft 3 m.

Type: Military. MMSI: 368926007.

Date/timePositionNaut miles runAvg speedWind from/ knotsBaromVisibWave heightAir tempDewpointWater temp
2017-Nov-19 22:05N 34°09' W 119°12'0 0.0
2017-Nov-19 21:58N 34°09' W 119°12'3 5.4
2017-Nov-19 21:29N 34°07' W 119°14'510.0
2017-Nov-19 21:00N 34°03' W 119°18'510.0
2017-Nov-19 20:31N 33°59' W 119°21'510.5
2017-Nov-19 19:59N 33°55' W 119°26'510.3
2017-Nov-19 19:30N 33°51' W 119°30'510.3
2017-Nov-19 18:58N 33°47' W 119°33'510.1
2017-Nov-19 18:29N 33°43' W 119°37'5 9.4
2017-Nov-19 18:00N 33°39' W 119°40'5 9.1
2017-Nov-19 17:30N 33°35' W 119°43'5 9.4
2017-Nov-19 17:00N 33°31' W 119°45'2 4.5
2017-Nov-19 16:31N 33°29' W 119°44'2 4.3
2017-Nov-19 16:00N 33°28' W 119°42'2 4.4
2017-Nov-19 15:30N 33°26' W 119°40'2 4.2
2017-Nov-19 15:00N 33°24' W 119°39'3 4.3
2017-Nov-19 14:24N 33°26' W 119°41'1 3.1
2017-Nov-19 14:00N 33°26' W 119°40'4 7.2
2017-Nov-19 13:30N 33°30' W 119°38'4 7.8
2017-Nov-19 13:00N 33°33' W 119°36'4 7.8
2017-Nov-19 12:30N 33°37' W 119°35'4 7.7
2017-Nov-19 12:00N 33°41' W 119°33'4 8.1
2017-Nov-19 11:30N 33°44' W 119°31'4 8.0
2017-Nov-19 11:00N 33°48' W 119°28'4 8.1
2017-Nov-19 10:29N 33°51' W 119°26'4 8.0
2017-Nov-19 09:58N 33°55' W 119°24'4 8.1
2017-Nov-19 09:30N 33°58' W 119°21'4 8.3
2017-Nov-19 08:59N 34°02' W 119°19'5 8.5
2017-Nov-19 08:27N 34°05' W 119°15'4 7.9
2017-Nov-19 07:59N 34°09' W 119°13'1 1.1
2017-Nov-19 07:19N 34°09' W 119°12'0 0.0
2017-Nov-19 06:58N 34°09' W 119°12'0 0.0
2017-Nov-19 06:30N 34°09' W 119°12'0 0.0
2017-Nov-19 06:01N 34°09' W 119°12'0 0.0
2017-Nov-19 05:27N 34°09' W 119°12'0 0.0
2017-Nov-19 04:59N 34°09' W 119°12'  
Track history (hours):
 
Tides and Currents Weather Stations Pressure Air Temp Water Temp Dewpoint Dewpoint Depression Visibility Wind Speed Wind Dir Waves Ship Positions

Island Fox

Last reported at 2017-Nov-19 22:05 UTC. Time now 2017-Nov-24 12:43 UTC.
Position N 34°09' W 119°12'.

Length 28 m; draft 3 m.

Type: Military. MMSI: 368926007.

Date/timePositionNaut miles runAvg speedWind from/ knotsBaromVisibWave heightAir tempDewpointWater temp
2017-Nov-19 22:05N 34°09' W 119°12'0 0.0
2017-Nov-19 21:58N 34°09' W 119°12'3 5.4
2017-Nov-19 21:29N 34°07' W 119°14'510.0
2017-Nov-19 21:00N 34°03' W 119°18'510.0
2017-Nov-19 20:31N 33°59' W 119°21'510.5
2017-Nov-19 19:59N 33°55' W 119°26'510.3
2017-Nov-19 19:30N 33°51' W 119°30'510.3
2017-Nov-19 18:58N 33°47' W 119°33'510.1
2017-Nov-19 18:29N 33°43' W 119°37'5 9.4
2017-Nov-19 18:00N 33°39' W 119°40'5 9.1
2017-Nov-19 17:30N 33°35' W 119°43'5 9.4
2017-Nov-19 17:00N 33°31' W 119°45'2 4.5
2017-Nov-19 16:31N 33°29' W 119°44'2 4.3
2017-Nov-19 16:00N 33°28' W 119°42'2 4.4
2017-Nov-19 15:30N 33°26' W 119°40'2 4.2
2017-Nov-19 15:00N 33°24' W 119°39'3 4.3
2017-Nov-19 14:24N 33°26' W 119°41'1 3.1
2017-Nov-19 14:00N 33°26' W 119°40'4 7.2
2017-Nov-19 13:30N 33°30' W 119°38'4 7.8
2017-Nov-19 13:00N 33°33' W 119°36'4 7.8
2017-Nov-19 12:30N 33°37' W 119°35'4 7.7
2017-Nov-19 12:00N 33°41' W 119°33'4 8.1
2017-Nov-19 11:30N 33°44' W 119°31'4 8.0
2017-Nov-19 11:00N 33°48' W 119°28'4 8.1
2017-Nov-19 10:29N 33°51' W 119°26'4 8.0
2017-Nov-19 09:58N 33°55' W 119°24'4 8.1
2017-Nov-19 09:30N 33°58' W 119°21'4 8.3
2017-Nov-19 08:59N 34°02' W 119°19'5 8.5
2017-Nov-19 08:27N 34°05' W 119°15'4 7.9
2017-Nov-19 07:59N 34°09' W 119°13'1 1.1
2017-Nov-19 07:19N 34°09' W 119°12'0 0.0
2017-Nov-19 06:58N 34°09' W 119°12'0 0.0
2017-Nov-19 06:30N 34°09' W 119°12'0 0.0
2017-Nov-19 06:01N 34°09' W 119°12'0 0.0
2017-Nov-19 05:27N 34°09' W 119°12'0 0.0
2017-Nov-19 04:59N 34°09' W 119°12'  

Dump ship's entire track history